createdAt,value
2024-02-07T00:02:14.016Z,1.03
2024-02-07T00:04:44.183Z,0.70
2024-02-07T00:07:12.952Z,1.13
2024-02-07T00:09:42.175Z,1.33
2024-02-07T00:12:10.662Z,1.40
2024-02-07T00:14:39.173Z,0.87
2024-02-07T00:17:07.681Z,1.23
2024-02-07T00:19:36.243Z,0.90
2024-02-07T00:22:06.409Z,1.57
2024-02-07T00:24:35.056Z,0.73
2024-02-07T00:27:03.803Z,0.70
2024-02-07T00:29:32.257Z,1.40
2024-02-07T00:32:00.819Z,1.03
2024-02-07T00:34:29.474Z,0.93
2024-02-07T00:36:58.150Z,0.93
2024-02-07T00:39:28.175Z,1.20
2024-02-07T00:41:56.727Z,1.07
2024-02-07T00:44:25.217Z,0.70
2024-02-07T00:46:53.796Z,1.20
2024-02-07T00:49:22.532Z,1.00
2024-02-07T00:51:50.995Z,0.70
2024-02-07T00:54:19.425Z,1.77
2024-02-07T00:56:49.258Z,1.10
2024-02-07T00:59:18.644Z,1.53
2024-02-07T01:01:47.253Z,1.33
2024-02-07T01:04:15.883Z,0.97
2024-02-07T01:06:44.494Z,0.93
2024-02-07T01:09:13.578Z,1.00
2024-02-07T01:11:42.149Z,1.60
2024-02-07T01:14:11.938Z,1.17
2024-02-07T01:16:41.646Z,2.00
2024-02-07T01:19:10.628Z,1.33
2024-02-07T01:21:39.315Z,1.30
2024-02-07T01:24:08.278Z,1.00
2024-02-07T01:26:37.364Z,2.10
2024-02-07T01:29:06.635Z,1.57
2024-02-07T01:31:36.479Z,1.37
2024-02-07T01:34:05.167Z,1.27
2024-02-07T01:36:33.744Z,2.47
2024-02-07T01:39:05.841Z,1.27
2024-02-07T01:41:48.313Z,1.60
2024-02-07T01:44:16.916Z,1.03
2024-02-07T01:46:46.832Z,1.50
2024-02-07T01:49:16.016Z,1.77
2024-02-07T01:51:45.497Z,1.60
2024-02-07T01:54:14.127Z,1.90
2024-02-07T01:56:43.131Z,1.77
2024-02-07T01:59:11.745Z,1.33
2024-02-07T02:01:43.221Z,1.10
2024-02-07T02:04:13.550Z,1.27
2024-02-07T02:06:42.845Z,1.60
2024-02-07T02:09:11.422Z,1.10
2024-02-07T02:11:42.685Z,1.23
2024-02-07T02:14:11.263Z,2.23
2024-02-07T02:16:40.164Z,1.47
2024-02-07T02:19:08.846Z,2.00
2024-02-07T02:21:51.323Z,2.23
2024-02-07T02:24:29.160Z,1.33
2024-02-07T02:27:03.235Z,1.70
2024-02-07T02:29:37.814Z,1.30
2024-02-07T02:32:08.782Z,1.93
2024-02-07T02:34:38.842Z,1.30
2024-02-07T02:37:07.682Z,1.20
2024-02-07T02:39:36.237Z,1.53
2024-02-07T02:42:04.992Z,1.27
2024-02-07T02:44:36.128Z,2.20
2024-02-07T02:47:04.821Z,1.20
2024-02-07T02:49:33.515Z,2.17
2024-02-07T02:52:02.227Z,2.03
2024-02-07T02:54:33.716Z,1.70
2024-02-07T02:57:03.810Z,1.70
2024-02-07T02:59:36.062Z,2.47
2024-02-07T03:02:10.232Z,1.70
2024-02-07T03:04:42.783Z,1.83
2024-02-07T03:07:29.491Z,2.20
2024-02-07T03:09:58.124Z,2.47
2024-02-07T03:12:27.094Z,1.67
2024-02-07T03:14:55.519Z,1.67
2024-02-07T03:17:25.400Z,2.73
2024-02-07T03:19:53.900Z,2.00
2024-02-07T03:22:22.415Z,1.73
2024-02-07T03:24:56.581Z,1.60
2024-02-07T03:27:25.457Z,2.97
2024-02-07T03:29:54.445Z,2.97
2024-02-07T03:32:22.933Z,1.23
2024-02-07T03:34:53.461Z,2.07
2024-02-07T03:37:22.707Z,1.13
2024-02-07T03:39:51.204Z,1.97
2024-02-07T03:42:19.643Z,1.77
2024-02-07T03:44:57.808Z,2.73
2024-02-07T03:47:26.867Z,2.27
2024-02-07T03:49:58.068Z,1.57
2024-02-07T03:52:26.831Z,1.60
2024-02-07T03:54:55.401Z,2.57
2024-02-07T03:57:23.882Z,2.23
2024-02-07T03:59:52.971Z,2.00
2024-02-07T04:02:23.188Z,1.50
2024-02-07T04:04:52.750Z,2.27
2024-02-07T04:07:24.634Z,1.63
2024-02-07T04:09:54.050Z,1.87
2024-02-07T04:12:21.510Z,1.93
2024-02-07T04:14:48.960Z,2.50
2024-02-07T04:17:35.276Z,1.90
2024-02-07T04:20:21.737Z,1.73
2024-02-07T04:23:09.195Z,1.57
2024-02-07T04:25:56.361Z,1.50
2024-02-07T04:28:42.797Z,1.37
2024-02-07T04:31:30.399Z,1.63
2024-02-07T04:34:16.825Z,1.50
2024-02-07T04:37:03.154Z,1.83
2024-02-07T04:39:50.748Z,1.30
2024-02-07T04:42:37.040Z,1.03
2024-02-07T04:45:23.629Z,0.90
2024-02-07T04:48:10.165Z,1.10
2024-02-07T04:50:56.563Z,0.80
2024-02-07T04:53:43.129Z,0.70
2024-02-07T04:56:30.806Z,1.10
2024-02-07T04:59:17.278Z,1.77
2024-02-07T05:02:03.720Z,0.70
2024-02-07T05:04:50.251Z,1.47
2024-02-07T05:07:36.901Z,1.50
2024-02-07T05:10:23.262Z,0.83
2024-02-07T05:13:10.777Z,1.23
2024-02-07T05:15:39.559Z,2.03
2024-02-07T05:18:08.050Z,0.90
2024-02-07T05:20:36.579Z,0.90
2024-02-07T05:23:05.284Z,1.20
2024-02-07T05:25:34.100Z,0.97
2024-02-07T05:28:04.176Z,1.93
2024-02-07T05:30:32.693Z,0.90
2024-02-07T05:33:01.352Z,1.43
2024-02-07T05:35:29.991Z,2.10
2024-02-07T05:37:58.610Z,1.50
2024-02-07T05:40:27.168Z,1.90
2024-02-07T05:42:55.820Z,1.63
2024-02-07T05:45:25.646Z,1.43
2024-02-07T05:47:54.239Z,1.53
2024-02-07T05:50:23.331Z,1.27
2024-02-07T05:52:52.286Z,2.00
2024-02-07T05:55:21.041Z,1.40
2024-02-07T05:57:49.630Z,1.70
2024-02-07T06:00:18.465Z,2.13
2024-02-07T06:02:48.236Z,1.73
2024-02-07T06:05:16.756Z,1.50
2024-02-07T06:07:46.155Z,2.00
2024-02-07T06:10:14.819Z,1.33
2024-02-07T06:12:45.935Z,1.67
2024-02-07T06:15:15.280Z,1.90
2024-02-07T06:17:43.976Z,1.83
2024-02-07T06:20:14.379Z,1.70
2024-02-07T06:22:46.886Z,1.83
2024-02-07T06:25:15.926Z,3.10
2024-02-07T06:27:44.576Z,2.70
2024-02-07T06:30:14.692Z,1.87
2024-02-07T06:32:43.437Z,1.67
2024-02-07T06:35:13.415Z,1.63
2024-02-07T06:37:43.400Z,1.07
2024-02-07T06:40:12.353Z,1.23
2024-02-07T06:42:40.877Z,0.97
2024-02-07T06:45:09.881Z,0.80
2024-02-07T06:47:38.460Z,1.43
2024-02-07T06:50:07.381Z,1.67
2024-02-07T06:52:38.097Z,1.20
2024-02-07T06:55:07.123Z,1.37
2024-02-07T06:57:35.772Z,1.33
2024-02-07T07:00:04.405Z,1.37
2024-02-07T07:02:32.969Z,2.20
2024-02-07T07:05:01.540Z,1.17
2024-02-07T07:07:30.117Z,1.43
2024-02-07T07:10:00.083Z,1.77
2024-02-07T07:12:28.786Z,3.20
2024-02-07T07:14:57.339Z,1.50
2024-02-07T07:17:25.992Z,1.63
2024-02-07T07:19:54.664Z,0.93
2024-02-07T07:22:25.202Z,1.03
2024-02-07T07:24:53.782Z,2.33
2024-02-07T07:27:23.706Z,1.83
2024-02-07T07:29:52.333Z,1.97
2024-02-07T07:32:20.938Z,1.43
2024-02-07T07:34:49.464Z,1.77
2024-02-07T07:37:19.111Z,1.47
2024-02-07T07:39:47.886Z,2.03
2024-02-07T07:42:16.411Z,1.60
2024-02-07T07:44:46.914Z,1.27
2024-02-07T07:47:15.374Z,2.03
2024-02-07T07:49:44.069Z,1.87
2024-02-07T07:52:12.847Z,1.43
2024-02-07T07:54:41.395Z,0.67
2024-02-07T07:57:10.089Z,1.80
2024-02-07T07:59:38.623Z,1.73
2024-02-07T08:02:09.646Z,1.20
2024-02-07T08:04:38.218Z,0.80
2024-02-07T08:07:09.196Z,1.30
2024-02-07T08:09:37.700Z,1.50
2024-02-07T08:12:06.542Z,1.30
2024-02-07T08:14:35.048Z,1.30
2024-02-07T08:17:03.528Z,1.50
2024-02-07T08:19:33.410Z,1.10
2024-02-07T08:22:01.924Z,2.70
2024-02-07T08:24:30.326Z,1.90
2024-02-07T08:26:58.797Z,1.60
2024-02-07T08:29:30.136Z,1.20
2024-02-07T08:32:01.435Z,1.83
2024-02-07T08:34:30.643Z,2.07
2024-02-07T08:37:01.027Z,1.40
2024-02-07T08:39:29.412Z,0.90
2024-02-07T08:41:57.976Z,2.30
2024-02-07T08:44:26.440Z,2.73
2024-02-07T08:46:55.071Z,1.53
2024-02-07T08:49:23.790Z,1.70
2024-02-07T08:51:52.596Z,1.30
2024-02-07T08:54:22.426Z,1.43
2024-02-07T08:56:50.845Z,1.73
2024-02-07T08:59:19.317Z,1.30
2024-02-07T09:01:47.884Z,1.40
2024-02-07T09:04:16.453Z,2.03
2024-02-07T09:06:46.314Z,1.60
2024-02-07T09:09:14.819Z,1.23
2024-02-07T09:11:44.574Z,1.60
2024-02-07T09:14:13.948Z,1.57
2024-02-07T09:16:43.672Z,1.70
2024-02-07T09:19:12.423Z,1.50
2024-02-07T09:21:40.936Z,2.13
2024-02-07T09:24:09.710Z,1.07
2024-02-07T09:26:38.766Z,2.07
2024-02-07T09:29:08.649Z,1.63
2024-02-07T09:31:37.177Z,1.20
2024-02-07T09:34:05.728Z,1.33
2024-02-07T09:36:39.286Z,1.53
2024-02-07T09:39:07.996Z,2.20
2024-02-07T09:41:37.371Z,1.27
2024-02-07T09:44:06.310Z,1.70
2024-02-07T09:46:38.857Z,1.07
2024-02-07T09:49:08.341Z,1.30
2024-02-07T09:51:36.864Z,1.77
2024-02-07T09:54:06.630Z,1.13
2024-02-07T09:56:36.211Z,1.37
2024-02-07T09:59:04.840Z,1.57
2024-02-07T10:01:33.430Z,1.70
2024-02-07T10:04:03.556Z,1.33
2024-02-07T10:06:34.268Z,1.13
2024-02-07T10:09:03.195Z,1.33
2024-02-07T10:11:32.367Z,1.43
2024-02-07T10:14:01.040Z,1.77
2024-02-07T10:16:29.826Z,0.90
2024-02-07T10:18:58.465Z,1.37
2024-02-07T10:21:35.681Z,1.20
2024-02-07T10:24:05.134Z,0.90
2024-02-07T10:26:33.713Z,1.20
2024-02-07T10:29:02.637Z,0.93
2024-02-07T10:31:31.293Z,1.23
2024-02-07T10:34:00.275Z,0.80
2024-02-07T10:36:28.980Z,1.13
2024-02-07T10:39:04.741Z,0.87
2024-02-07T10:41:33.394Z,1.70
2024-02-07T10:44:08.617Z,1.00
2024-02-07T10:46:37.404Z,1.13
2024-02-07T10:49:05.996Z,1.20
2024-02-07T10:51:34.782Z,0.70
2024-02-07T10:54:08.045Z,1.07
2024-02-07T10:56:37.334Z,1.20
2024-02-07T10:59:06.912Z,1.17
2024-02-07T11:01:35.618Z,1.27
2024-02-07T11:04:04.202Z,1.30
2024-02-07T11:06:35.452Z,1.23
2024-02-07T11:09:07.543Z,1.03
2024-02-07T11:11:36.674Z,0.93
2024-02-07T11:14:06.872Z,0.53
2024-02-07T11:16:36.512Z,1.00
2024-02-07T11:19:05.235Z,1.03
2024-02-07T11:21:35.710Z,0.80
2024-02-07T11:24:06.700Z,1.03
2024-02-07T11:26:36.284Z,0.80
2024-02-07T11:29:07.728Z,0.87
2024-02-07T11:31:36.845Z,1.27
2024-02-07T11:34:05.566Z,0.77
2024-02-07T11:36:35.829Z,0.97
2024-02-07T11:39:16.199Z,1.00
2024-02-07T11:41:48.527Z,1.10
2024-02-07T11:44:17.517Z,1.53
2024-02-07T11:46:52.559Z,1.00
2024-02-07T11:49:21.469Z,0.87
2024-02-07T11:51:59.702Z,0.57
2024-02-07T11:54:33.524Z,1.10
2024-02-07T11:57:02.261Z,1.00
2024-02-07T11:59:30.946Z,0.67
2024-02-07T12:01:59.627Z,0.80
2024-02-07T12:04:29.358Z,0.57
2024-02-07T12:06:57.987Z,0.90
2024-02-07T12:09:26.559Z,1.07
2024-02-07T12:11:56.514Z,1.43
2024-02-07T12:14:25.056Z,1.10
2024-02-07T12:16:53.637Z,0.70
2024-02-07T12:19:22.386Z,1.13
2024-02-07T12:21:50.907Z,0.60
2024-02-07T12:24:19.532Z,0.80
2024-02-07T12:26:48.004Z,0.80
2024-02-07T12:29:22.934Z,1.07
2024-02-07T12:31:53.497Z,1.17
2024-02-07T12:34:27.335Z,1.10
2024-02-07T12:36:55.996Z,1.97
2024-02-07T12:39:24.557Z,1.33
2024-02-07T12:41:53.139Z,0.77
2024-02-07T12:44:22.964Z,1.33
2024-02-07T12:46:51.547Z,0.97
2024-02-07T12:49:23.258Z,0.80
2024-02-07T12:51:53.244Z,1.10
2024-02-07T12:54:22.146Z,1.20
2024-02-07T12:56:54.686Z,1.40
2024-02-07T12:59:33.300Z,1.17
2024-02-07T13:02:03.584Z,0.83
2024-02-07T13:04:32.372Z,1.23
2024-02-07T13:07:01.263Z,1.13
2024-02-07T13:09:30.083Z,1.57
2024-02-07T13:11:59.035Z,1.43
2024-02-07T13:14:28.167Z,1.20
2024-02-07T13:16:58.013Z,0.90
2024-02-07T13:19:26.719Z,0.93
2024-02-07T13:21:55.333Z,1.00
2024-02-07T13:24:23.822Z,0.87
2024-02-07T13:26:52.497Z,1.20
2024-02-07T13:29:21.564Z,0.40
2024-02-07T13:31:51.870Z,1.00
2024-02-07T13:34:24.164Z,0.80
2024-02-07T13:36:52.753Z,0.80
2024-02-07T13:39:21.274Z,0.80
2024-02-07T13:41:49.804Z,0.70
2024-02-07T13:44:18.285Z,0.97
2024-02-07T13:46:46.898Z,1.43
2024-02-07T13:49:15.848Z,1.00
2024-02-07T13:51:45.762Z,1.43
2024-02-07T13:54:15.424Z,0.93
2024-02-07T13:56:44.384Z,1.10
2024-02-07T13:59:13.479Z,0.80
2024-02-07T14:01:42.452Z,0.67
2024-02-07T14:04:11.172Z,0.90
2024-02-07T14:06:39.624Z,0.93
2024-02-07T14:09:09.684Z,1.50
2024-02-07T14:11:41.900Z,1.10
2024-02-07T14:14:10.620Z,0.90
2024-02-07T14:16:39.129Z,1.00
2024-02-07T14:19:07.676Z,0.80
2024-02-07T14:21:36.258Z,1.27
2024-02-07T14:24:05.132Z,1.37
2024-02-07T14:26:35.065Z,1.20
2024-02-07T14:29:03.597Z,1.43
2024-02-07T14:31:32.148Z,1.30
2024-02-07T14:34:00.893Z,1.33
2024-02-07T14:36:29.558Z,1.10
2024-02-07T14:38:58.125Z,0.90
2024-02-07T14:41:28.047Z,0.97
2024-02-07T14:43:58.085Z,1.00
2024-02-07T14:46:26.769Z,0.93
2024-02-07T14:48:55.653Z,0.80
2024-02-07T14:51:24.504Z,0.80
2024-02-07T14:53:53.402Z,0.90
2024-02-07T14:56:22.108Z,1.20
2024-02-07T14:58:50.908Z,1.27
2024-02-07T15:01:22.144Z,0.87
2024-02-07T15:03:50.985Z,0.83
2024-02-07T15:06:19.756Z,0.73
2024-02-07T15:08:48.484Z,1.57
2024-02-07T15:11:17.216Z,1.23
2024-02-07T15:13:45.975Z,1.00
2024-02-07T15:16:14.842Z,1.70
2024-02-07T15:18:44.924Z,0.90
2024-02-07T15:21:13.664Z,0.77
2024-02-07T15:23:42.449Z,1.83
2024-02-07T15:26:12.256Z,1.10
2024-02-07T15:28:40.951Z,1.43
2024-02-07T15:31:09.895Z,1.43
2024-02-07T15:33:41.081Z,0.97
2024-02-07T15:36:13.413Z,1.27
2024-02-07T15:38:42.330Z,0.97
2024-02-07T15:41:11.014Z,0.93
2024-02-07T15:43:39.696Z,1.43
2024-02-07T15:46:08.656Z,1.10
2024-02-07T15:48:40.486Z,1.40
2024-02-07T15:51:14.966Z,1.43
2024-02-07T15:53:43.633Z,1.20
2024-02-07T15:56:12.367Z,0.60
2024-02-07T15:58:41.077Z,0.87
2024-02-07T16:01:10.402Z,1.03
2024-02-07T16:03:39.304Z,1.27
2024-02-07T16:06:08.048Z,9.30
2024-02-07T16:08:38.127Z,12.17
2024-02-07T16:11:07.164Z,5.97
2024-02-07T16:13:36.901Z,3.50
2024-02-07T16:16:05.566Z,2.77
2024-02-07T16:18:34.477Z,1.87
2024-02-07T16:21:03.126Z,3.47
2024-02-07T16:23:31.782Z,2.87
2024-02-07T16:26:01.816Z,7.50
2024-02-07T16:28:30.486Z,4.20
2024-02-07T16:30:59.015Z,2.80
2024-02-07T16:33:27.529Z,1.87
2024-02-07T16:35:56.200Z,1.83
2024-02-07T16:38:24.728Z,1.43
2024-02-07T16:40:53.288Z,1.47
2024-02-07T16:43:23.354Z,1.50
2024-02-07T16:45:51.960Z,1.37
2024-02-07T16:48:20.761Z,2.13
2024-02-07T16:50:49.400Z,1.37
2024-02-07T16:53:18.047Z,2.00
2024-02-07T16:55:46.673Z,1.83
2024-02-07T16:58:15.365Z,1.57
2024-02-07T17:00:46.543Z,1.70
2024-02-07T17:03:15.218Z,1.50
2024-02-07T17:05:44.199Z,1.43
2024-02-07T17:08:12.796Z,1.20
2024-02-07T17:10:43.623Z,1.50
2024-02-07T17:13:14.753Z,2.10
2024-02-07T17:15:44.954Z,1.70
2024-02-07T17:18:13.741Z,1.20
2024-02-07T17:20:46.849Z,2.00
2024-02-07T17:23:15.471Z,1.80
2024-02-07T17:25:44.149Z,1.67
2024-02-07T17:28:14.408Z,2.53
2024-02-07T17:30:45.122Z,1.13
2024-02-07T17:33:14.046Z,1.60
2024-02-07T17:35:42.832Z,1.63
2024-02-07T17:38:16.646Z,0.93
2024-02-07T17:40:47.166Z,1.57
2024-02-07T17:43:16.060Z,1.33
2024-02-07T17:45:46.557Z,1.70
2024-02-07T17:48:16.159Z,1.97
2024-02-07T17:50:44.797Z,2.23
2024-02-07T17:53:15.739Z,1.00
2024-02-07T17:55:44.701Z,1.63
2024-02-07T17:58:14.432Z,2.30
2024-02-07T18:00:43.180Z,2.60
2024-02-07T18:03:13.921Z,1.70
2024-02-07T18:05:42.757Z,2.50
2024-02-07T18:08:11.558Z,1.80
2024-02-07T18:10:41.772Z,1.73
2024-02-07T18:13:10.789Z,1.50
2024-02-07T18:15:39.972Z,1.80
2024-02-07T18:18:09.025Z,2.80
2024-02-07T18:20:39.979Z,3.40
2024-02-07T18:23:08.638Z,3.47
2024-02-07T18:25:37.268Z,3.17
2024-02-07T18:28:08.001Z,2.70
2024-02-07T18:30:36.460Z,2.37
2024-02-07T18:33:08.359Z,3.10
2024-02-07T18:35:38.510Z,2.17
2024-02-07T18:38:07.083Z,2.40
2024-02-07T18:40:35.742Z,1.67
2024-02-07T18:43:04.317Z,2.13
2024-02-07T18:45:33.096Z,2.37
2024-02-07T18:48:03.943Z,3.10
2024-02-07T18:50:33.255Z,3.27
2024-02-07T18:53:04.271Z,2.27
2024-02-07T18:55:32.903Z,2.60
2024-02-07T18:58:01.440Z,2.67
2024-02-07T19:00:29.963Z,2.53
2024-02-07T19:02:58.824Z,2.33
2024-02-07T19:05:30.762Z,3.40
2024-02-07T19:07:59.694Z,4.37
2024-02-07T19:10:29.630Z,3.43
2024-02-07T19:12:58.203Z,4.03
2024-02-07T19:15:27.797Z,3.80
2024-02-07T19:17:59.548Z,4.00
2024-02-07T19:20:28.283Z,3.77
2024-02-07T19:22:58.050Z,3.13
2024-02-07T19:25:26.705Z,6.00
2024-02-07T19:27:56.658Z,4.90
2024-02-07T19:30:25.501Z,4.27
2024-02-07T19:32:54.291Z,2.90
2024-02-07T19:35:23.763Z,2.83
2024-02-07T19:37:52.541Z,3.07
2024-02-07T19:40:21.306Z,3.30
2024-02-07T19:42:49.904Z,2.60
2024-02-07T19:45:19.897Z,2.00
2024-02-07T19:47:48.948Z,2.83
2024-02-07T19:50:17.656Z,2.63
2024-02-07T19:52:46.295Z,2.57
2024-02-07T19:55:14.929Z,2.60
2024-02-07T19:57:43.520Z,2.17
2024-02-07T20:00:12.328Z,2.93
2024-02-07T20:02:43.163Z,2.87
2024-02-07T20:05:13.950Z,2.17
2024-02-07T20:07:42.690Z,3.30
2024-02-07T20:10:11.711Z,3.90
2024-02-07T20:12:40.382Z,2.93
2024-02-07T20:15:09.442Z,2.83
2024-02-07T20:17:38.995Z,5.73
2024-02-07T20:20:09.990Z,3.50
2024-02-07T20:22:38.644Z,3.97
2024-02-07T20:25:10.652Z,8.17
2024-02-07T20:27:39.302Z,5.83
2024-02-07T20:30:08.499Z,4.83
2024-02-07T20:32:37.012Z,8.20
2024-02-07T20:35:05.930Z,5.30
2024-02-07T20:37:35.853Z,3.70
2024-02-07T20:40:04.404Z,3.90
2024-02-07T20:42:33.074Z,3.90
2024-02-07T20:45:01.878Z,3.43
2024-02-07T20:47:35.801Z,3.90
2024-02-07T20:50:05.905Z,4.40
2024-02-07T20:52:35.895Z,3.50
2024-02-07T20:55:05.664Z,3.97
2024-02-07T20:57:34.113Z,4.30
2024-02-07T21:00:02.587Z,2.93
2024-02-07T21:02:33.051Z,3.57
2024-02-07T21:05:02.208Z,3.83
2024-02-07T21:07:30.900Z,3.03
2024-02-07T21:10:00.914Z,2.90
2024-02-07T21:12:29.495Z,3.47
2024-02-07T21:14:58.073Z,3.50
2024-02-07T21:17:28.037Z,3.37
2024-02-07T21:19:58.004Z,3.07
2024-02-07T21:22:26.931Z,4.80
2024-02-07T21:24:55.561Z,4.03
2024-02-07T21:27:25.341Z,3.10
2024-02-07T21:29:54.454Z,3.90
2024-02-07T21:32:22.939Z,3.50
2024-02-07T21:34:51.691Z,2.97
2024-02-07T21:37:20.359Z,3.43
2024-02-07T21:39:48.935Z,2.93
2024-02-07T21:42:17.509Z,4.17
2024-02-07T21:44:48.016Z,2.90
2024-02-07T21:47:16.464Z,3.63
2024-02-07T21:49:45.112Z,3.00
2024-02-07T21:52:13.788Z,2.60
2024-02-07T21:54:42.389Z,2.90
2024-02-07T21:57:11.262Z,2.63
2024-02-07T21:59:39.794Z,3.27
2024-02-07T22:02:10.066Z,2.90
2024-02-07T22:04:38.876Z,3.43
2024-02-07T22:07:07.457Z,2.90
2024-02-07T22:09:35.984Z,2.80
2024-02-07T22:12:07.974Z,3.67
2024-02-07T22:14:37.803Z,2.20
2024-02-07T22:17:07.044Z,2.87
2024-02-07T22:19:37.804Z,2.53
2024-02-07T22:22:06.645Z,2.43
2024-02-07T22:24:35.209Z,2.93
2024-02-07T22:27:03.675Z,2.80
2024-02-07T22:29:32.291Z,2.00
2024-02-07T22:32:00.919Z,2.30
2024-02-07T22:34:29.517Z,2.30
2024-02-07T22:37:00.558Z,2.13
2024-02-07T22:39:29.060Z,2.53
2024-02-07T22:41:57.575Z,2.40
2024-02-07T22:44:26.114Z,2.50
2024-02-07T22:46:55.453Z,2.33
2024-02-07T22:49:24.141Z,1.90
2024-02-07T22:51:53.698Z,2.27
2024-02-07T22:54:23.618Z,2.17
2024-02-07T22:56:52.220Z,2.23
2024-02-07T22:59:21.114Z,1.83
2024-02-07T23:01:49.626Z,2.40
2024-02-07T23:04:18.722Z,2.23
2024-02-07T23:06:50.440Z,2.20
2024-02-07T23:09:18.973Z,1.67
2024-02-07T23:11:48.842Z,1.77
2024-02-07T23:14:17.295Z,1.90
2024-02-07T23:16:47.425Z,2.70
2024-02-07T23:19:16.481Z,2.37
2024-02-07T23:21:45.505Z,2.30
2024-02-07T23:24:14.171Z,2.53
2024-02-07T23:26:42.740Z,2.33
2024-02-07T23:29:12.591Z,2.57
2024-02-07T23:31:41.254Z,1.30
2024-02-07T23:34:09.809Z,2.27
2024-02-07T23:36:38.318Z,1.97
2024-02-07T23:39:06.810Z,1.87
2024-02-07T23:41:35.435Z,2.23
2024-02-07T23:44:03.225Z,1.90
2024-02-07T23:46:33.202Z,2.47
2024-02-07T23:49:02.893Z,1.73
2024-02-07T23:51:31.716Z,1.27
2024-02-07T23:54:00.330Z,2.07
2024-02-07T23:56:28.871Z,1.03
2024-02-07T23:58:57.440Z,1.50
